Barbados Meteorological Services
Auto gathered TAF list
Powered by Apparatus software
For Flight DL688
Contact Number 1-(246)-535-0021/2/3/4/5/6
WEB: http://www.barbadosweather.org

**********************************************

2017/05/27 18:59
TAF TLPL 271700Z 2718/2818 09017KT 9999 SCT025
BECMG 2800/2802 11015KT
TEMPO 2804/2818 5000 SHRA FEW015CB BKN018


**********************************************
2017/05/27 13:36
TAF TJSJ 271325Z 2713/2812 07012KT P6SM VCSH SCT030 SCT050
TEMPO 2713/2715 6SM -SHRA BKN040
FM272300 11008KT P6SM SCT025


**********************************************
2017/05/27 18:12
TAF TFFR 271700Z 2718/2818 12010KT 9999 SCT030
BECMG 2723/2801 VRB02KT
TEMPO 2803/2812 4000 SHRA SCT018TCU PROB30
TEMPO 2809/2812 1000 TSRA BKN015CB


**********************************************
2017/05/27 18:18
TAF TAF TBPB 271600Z 2718/2818 09016KT 9999 SCT018
BECMG 2722/2723 7000 SHRA RA FEW012CB BKN014


**********************************************
2017/05/27 12:57
TAF TAPA 271100Z 2712/2812 10010KT 9999 SCT018 PROB30
TEMPO 2712/2723 SHRA


**********************************************
2017/05/27 18:51
TAF MYNN 271645Z 2718/2818 07005G15KT 9999 VCSH FEW015CB SCT018
FM280000 VRB02KT 9999 SCT022


**********************************************
2017/05/26 12:18
TAF MTPP 261100Z 2612/2712 10008KT 7000 FEW020
TEMPO 2614/2618 09010G20KT PROB30
TEMPO 2700/2704 4500 -SHRA FEW022CB SCT040
BECMG 2708/2712 VRB02KT 9000 FEW020


**********************************************
2017/05/27 18:37
TAF MDSD 271600Z 2718/2818 14010KT 9999 FEW018 PROB30 2723/2803 7000 -RA SCT016 BKN070
BECMG 2803/20807 05004KT


**********************************************
2017/05/27 17:51
TAF KSFB 271648Z 2717/2812 22005KT P6SM SKC
FM280000 13008KT P6SM SKC
FM280300 21004KT P6SM SKC


**********************************************
2017/05/27 16:52
TAF
AMD KPHL 271548Z 2716/2818 22009KT P6SM SCT045 BKN120
FM272100 20006KT P6SM BKN045
FM280200 18004KT P6SM SCT250
FM280900 08004KT P6SM SCT250
FM281600 12008KT P6SM BKN035


**********************************************
2017/05/27 15:07
TAF
AMD KPBI 271502Z 2715/2812 VRB05KT P6SM FEW010 SCT020
TEMPO 2715/2716 BKN020
FM271700 12010KT P6SM FEW035 SCT250
FM280000 VRB04KT P6SM SKC


**********************************************
2017/05/27 15:06
TAF
AMD KOPF 271502Z 2715/2812 VRB03KT P6SM SCT020
FM271800 13009KT P6SM FEW040 SCT250
FM280000 VRB03KT P6SM SKC


**********************************************


**********************************************
2017/05/27 15:06
TAF
AMD KMIA 271502Z 2715/2812 VRB05KT P6SM SCT025
FM271800 13009KT P6SM SCT040 SCT250
FM280000 VRB03KT P6SM SKC


**********************************************
2017/05/27 15:12
TAF
AMD KMCO 271509Z 2715/2812 VRB03KT P6SM SKC
FM280000 14007KT P6SM SKC
FM280300 22003KT P6SM SKC


**********************************************
2017/05/27 15:44
TAF
AMD KJFK 271437Z 2715/2818 VRB05KT P6SM BKN040
FM271700 21007KT P6SM BKN040
FM271900 17009KT P6SM BKN045
FM280100 14005KT P6SM BKN035
FM280900 12007KT P6SM SCT020 BKN035
TEMPO 2809/2813 BKN020


**********************************************
2017/05/27 18:22
TAF KJAX 271720Z 2718/2818 22006KT P6SM SKC
FM280000 19004KT P6SM SKC
FM280900 24003KT 5SM BR SCT005
FM281300 26008KT P6SM SCT035


**********************************************
2017/05/27 15:07
TAF
AMD KFLL 271502Z 2715/2812 VRB03KT P6SM SCT025 SCT050
FM271700 12010KT P6SM FEW040 SCT250
FM280000 VRB04KT P6SM SKC


**********************************************
2017/05/27 15:39
TAF
AMD KEWR 271437Z 2715/2818 VRB04KT P6SM BKN040
FM271600 27006KT P6SM BKN045
FM272000 15007KT P6SM BKN045
FM280200 VRB04KT P6SM BKN035
FM280900 10005KT P6SM SCT020 BKN035
TEMPO 2809/2813 BKN020


**********************************************
2017/05/27 15:12
TAF
AMD KCLT 271511Z 2715/2812 24008KT P6SM FEW050 SCT250
FM272200 23008KT P6SM BKN060 PROB30 2800/2806 4SM -TSRA OVC040CB
FM280700 26004KT P6SM SCT060 BKN250


**********************************************
2017/05/27 16:46
TAF
AMD KATL 271544Z 2716/2818 24009KT P6SM FEW050 BKN200
FM271800 24009G16KT P6SM SCT050 BKN200
FM272200 25010G18KT P6SM BKN050
FM280100 25006KT P6SM VCSH BKN040
FM280300 24005KT P6SM SCT040 BKN150
FM281000 25006KT P6SM BKN012
FM281400 25010KT P6SM SCT025
FM281500 25011KT P6SM SCT035


**********************************************